sensor_id;sensor_type;location;lat;lon;timestamp;pressure;altitude;pressure_sealevel;temperature;humidity
9423;BME280;65863;49.506;10.400;2023-02-18T00:01:07;98726.41;;;9.81;92.15
9423;BME280;65863;49.506;10.400;2023-02-18T00:03:52;98670.94;;;9.36;92.27
9423;BME280;65863;49.506;10.400;2023-02-18T00:06:40;98718.97;;;9.64;92.38
9423;BME280;65863;49.506;10.400;2023-02-18T00:09:24;98716.25;;;9.59;92.53
9423;BME280;65863;49.506;10.400;2023-02-18T00:12:08;98704.44;;;9.47;92.89
9423;BME280;65863;49.506;10.400;2023-02-18T00:14:52;98730.47;;;9.61;93.02
9423;BME280;65863;49.506;10.400;2023-02-18T00:17:37;98713.66;;;9.42;93.39
9423;BME280;65863;49.506;10.400;2023-02-18T00:20:21;98718.44;;;9.47;93.69
9423;BME280;65863;49.506;10.400;2023-02-18T00:23:05;98694.94;;;9.31;94.06
9423;BME280;65863;49.506;10.400;2023-02-18T00:25:49;98701.00;;;9.35;94.05
9423;BME280;65863;49.506;10.400;2023-02-18T00:28:34;98700.41;;;9.42;94.41
9423;BME280;65863;49.506;10.400;2023-02-18T00:31:20;98718.66;;;9.49;94.64
9423;BME280;65863;49.506;10.400;2023-02-18T00:34:05;98705.31;;;9.36;95.06
9423;BME280;65863;49.506;10.400;2023-02-18T00:36:49;98717.00;;;9.40;94.92
9423;BME280;65863;49.506;10.400;2023-02-18T00:39:32;98729.41;;;9.45;95.17
9423;BME280;65863;49.506;10.400;2023-02-18T00:42:16;98731.16;;;9.48;95.04
9423;BME280;65863;49.506;10.400;2023-02-18T00:45:01;98712.97;;;9.36;95.26
9423;BME280;65863;49.506;10.400;2023-02-18T00:47:45;98721.81;;;9.40;95.24
9423;BME280;65863;49.506;10.400;2023-02-18T00:50:29;98722.75;;;9.48;95.42
9423;BME280;65863;49.506;10.400;2023-02-18T00:53:14;98717.75;;;9.41;95.70
9423;BME280;65863;49.506;10.400;2023-02-18T00:55:58;98735.88;;;9.59;95.53
9423;BME280;65863;49.506;10.400;2023-02-18T00:58:42;98689.41;;;9.25;95.74
9423;BME280;65863;49.506;10.400;2023-02-18T01:01:27;98729.13;;;9.48;95.75
9423;BME280;65863;49.506;10.400;2023-02-18T01:04:11;98733.66;;;9.52;95.98
9423;BME280;65863;49.506;10.400;2023-02-18T01:06:55;98727.88;;;9.44;95.91
9423;BME280;65863;49.506;10.400;2023-02-18T01:09:39;98701.00;;;9.35;96.07
9423;BME280;65863;49.506;10.400;2023-02-18T01:12:24;98707.88;;;9.34;96.22
9423;BME280;65863;49.506;10.400;2023-02-18T01:15:08;98694.25;;;9.25;96.45
9423;BME280;65863;49.506;10.400;2023-02-18T01:17:52;98696.53;;;9.26;96.54
9423;BME280;65863;49.506;10.400;2023-02-18T01:20:39;98696.06;;;9.22;96.57
9423;BME280;65863;49.506;10.400;2023-02-18T01:23:24;98708.94;;;9.31;97.03
9423;BME280;65863;49.506;10.400;2023-02-18T01:26:09;98731.94;;;9.48;96.98
9423;BME280;65863;49.506;10.400;2023-02-18T01:28:54;98700.78;;;9.33;96.76
9423;BME280;65863;49.506;10.400;2023-02-18T01:31:38;98700.06;;;9.27;97.11
9423;BME280;65863;49.506;10.400;2023-02-18T01:34:22;98701.06;;;9.29;97.19
9423;BME280;65863;49.506;10.400;2023-02-18T01:37:07;98702.75;;;9.38;96.83
9423;BME280;65863;49.506;10.400;2023-02-18T01:39:53;98701.00;;;9.35;96.88
9423;BME280;65863;49.506;10.400;2023-02-18T01:42:37;98728.22;;;9.59;96.60
9423;BME280;65863;49.506;10.400;2023-02-18T01:48:25;98698.31;;;9.48;96.55
9423;BME280;65863;49.506;10.400;2023-02-18T01:54:02;98696.38;;;9.57;95.97
9423;BME280;65863;49.506;10.400;2023-02-18T01:57:06;98690.09;;;9.51;95.75
9423;BME280;65863;49.506;10.400;2023-02-18T01:59:55;98710.78;;;9.67;95.72
9423;BME280;65863;49.506;10.400;2023-02-18T02:02:44;98712.03;;;9.71;95.54
9423;BME280;65863;49.506;10.400;2023-02-18T02:05:31;98688.50;;;9.55;95.44
9423;BME280;65863;49.506;10.400;2023-02-18T02:08:16;98690.28;;;9.58;95.29
9423;BME280;65863;49.506;10.400;2023-02-18T02:11:09;98703.53;;;9.77;95.19
9423;BME280;65863;49.506;10.400;2023-02-18T02:14:09;98690.78;;;9.76;95.00
9423;BME280;65863;49.506;10.400;2023-02-18T02:17:07;98689.72;;;9.79;94.78
9423;BME280;65863;49.506;10.400;2023-02-18T02:23:16;98688.66;;;9.82;94.50
9423;BME280;65863;49.506;10.400;2023-02-18T02:26:41;98690.19;;;9.83;94.33
9423;BME280;65863;49.506;10.400;2023-02-18T02:32:50;98675.94;;;9.81;94.16
9423;BME280;65863;49.506;10.400;2023-02-18T02:35:43;98676.16;;;9.83;94.31
9423;BME280;65863;49.506;10.400;2023-02-18T02:38:33;98683.03;;;9.82;93.92
9423;BME280;65863;49.506;10.400;2023-02-18T02:42:33;98642.63;;;9.58;93.85
9423;BME280;65863;49.506;10.400;2023-02-18T02:45:01;98666.38;;;9.71;93.87
9423;BME280;65863;49.506;10.400;2023-02-18T02:51:31;98664.28;;;9.77;93.83
9423;BME280;65863;49.506;10.400;2023-02-18T02:54:21;98636.16;;;9.63;93.96
9423;BME280;65863;49.506;10.400;2023-02-18T03:00:09;98642.75;;;9.66;94.18
9423;BME280;65863;49.506;10.400;2023-02-18T03:10:00;98642.81;;;9.79;94.25
9423;BME280;65863;49.506;10.400;2023-02-18T03:16:02;98653.28;;;9.79;94.06
9423;BME280;65863;49.506;10.400;2023-02-18T03:19:10;98654.03;;;9.79;93.97
9423;BME280;65863;49.506;10.400;2023-02-18T03:22:10;98621.25;;;9.55;93.82
9423;BME280;65863;49.506;10.400;2023-02-18T03:24:58;98652.91;;;9.69;93.90
9423;BME280;65863;49.506;10.400;2023-02-18T03:27:48;98660.16;;;9.78;94.14
9423;BME280;65863;49.506;10.400;2023-02-18T03:30:42;98654.09;;;9.74;94.16
9423;BME280;65863;49.506;10.400;2023-02-18T03:33:34;98635.25;;;9.55;94.18
9423;BME280;65863;49.506;10.400;2023-02-18T03:36:21;98625.81;;;9.58;94.22
9423;BME280;65863;49.506;10.400;2023-02-18T03:39:18;98655.16;;;9.71;94.50
9423;BME280;65863;49.506;10.400;2023-02-18T03:42:04;98636.78;;;9.56;94.40
9423;BME280;65863;49.506;10.400;2023-02-18T03:44:48;98633.22;;;9.56;94.30
9423;BME280;65863;49.506;10.400;2023-02-18T03:47:33;98659.72;;;9.74;94.51
9423;BME280;65863;49.506;10.400;2023-02-18T03:50:17;98652.91;;;9.69;94.24
9423;BME280;65863;49.506;10.400;2023-02-18T03:53:01;98633.97;;;9.56;94.11
9423;BME280;65863;49.506;10.400;2023-02-18T03:55:45;98629.88;;;9.57;94.22
9423;BME280;65863;49.506;10.400;2023-02-18T03:58:29;98660.69;;;9.76;94.01
9423;BME280;65863;49.506;10.400;2023-02-18T04:01:13;98647.28;;;9.69;94.13
9423;BME280;65863;49.506;10.400;2023-02-18T04:03:57;98642.84;;;9.60;93.77
9423;BME280;65863;49.506;10.400;2023-02-18T04:06:42;98643.50;;;9.67;93.75
9423;BME280;65863;49.506;10.400;2023-02-18T04:09:26;98646.56;;;9.69;93.69
9423;BME280;65863;49.506;10.400;2023-02-18T04:12:09;98632.91;;;9.59;93.61
9423;BME280;65863;49.506;10.400;2023-02-18T04:14:54;98638.97;;;9.63;93.47
9423;BME280;65863;49.506;10.400;2023-02-18T04:17:38;98645.47;;;9.72;93.07
9423;BME280;65863;49.506;10.400;2023-02-18T04:20:22;98626.47;;;9.64;93.10
9423;BME280;65863;49.506;10.400;2023-02-18T04:23:06;98623.97;;;9.61;93.05
9423;BME280;65863;49.506;10.400;2023-02-18T04:25:50;98641.47;;;9.67;92.88
9423;BME280;65863;49.506;10.400;2023-02-18T04:28:34;98637.16;;;9.66;92.78
9423;BME280;65863;49.506;10.400;2023-02-18T04:31:18;98656.31;;;9.81;92.70
9423;BME280;65863;49.506;10.400;2023-02-18T04:34:02;98628.22;;;9.68;92.73
9423;BME280;65863;49.506;10.400;2023-02-18T04:36:46;98656.31;;;9.81;92.68
9423;BME280;65863;49.506;10.400;2023-02-18T04:39:30;98624.91;;;9.50;92.75
9423;BME280;65863;49.506;10.400;2023-02-18T04:42:14;98657.69;;;9.74;92.75
9423;BME280;65863;49.506;10.400;2023-02-18T04:44:58;98618.06;;;9.45;92.98
9423;BME280;65863;49.506;10.400;2023-02-18T04:47:42;98646.56;;;9.69;92.91
9423;BME280;65863;49.506;10.400;2023-02-18T04:50:26;98637.22;;;9.60;93.08
9423;BME280;65863;49.506;10.400;2023-02-18T04:53:10;98643.06;;;9.62;93.11
9423;BME280;65863;49.506;10.400;2023-02-18T04:55:55;98646.09;;;9.64;92.71
9423;BME280;65863;49.506;10.400;2023-02-18T04:58:39;98668.03;;;9.79;92.61
9423;BME280;65863;49.506;10.400;2023-02-18T05:01:23;98621.25;;;9.55;92.49
9423;BME280;65863;49.506;10.400;2023-02-18T05:04:07;98622.09;;;9.50;92.59
9423;BME280;65863;49.506;10.400;2023-02-18T05:06:51;98655.63;;;9.75;92.58
9423;BME280;65863;49.506;10.400;2023-02-18T05:09:35;98648.81;;;9.70;92.42
9423;BME280;65863;49.506;10.400;2023-02-18T05:12:19;98619.97;;;9.56;92.23
9423;BME280;65863;49.506;10.400;2023-02-18T05:15:03;98630.81;;;9.65;92.43
9423;BME280;65863;49.506;10.400;2023-02-18T05:17:47;98622.94;;;9.64;92.22
9423;BME280;65863;49.506;10.400;2023-02-18T05:20:31;98642.88;;;9.74;92.50
9423;BME280;65863;49.506;10.400;2023-02-18T05:23:16;98617.69;;;9.55;92.74
9423;BME280;65863;49.506;10.400;2023-02-18T05:26:03;98619.75;;;9.54;92.76
9423;BME280;65863;49.506;10.400;2023-02-18T05:28:46;98580.22;;;9.20;93.08
9423;BME280;65863;49.506;10.400;2023-02-18T05:31:31;98635.63;;;9.65;93.11
9423;BME280;65863;49.506;10.400;2023-02-18T05:34:15;98585.22;;;9.27;93.41
9423;BME280;65863;49.506;10.400;2023-02-18T05:36:59;98615.97;;;9.52;93.37
9423;BME280;65863;49.506;10.400;2023-02-18T05:39:44;98615.97;;;9.52;93.33
9423;BME280;65863;49.506;10.400;2023-02-18T05:42:27;98630.25;;;9.48;93.43
9423;BME280;65863;49.506;10.400;2023-02-18T05:45:12;98609.16;;;9.47;93.19
9423;BME280;65863;49.506;10.400;2023-02-18T05:47:56;98600.06;;;9.41;93.08
9423;BME280;65863;49.506;10.400;2023-02-18T05:50:40;98626.03;;;9.60;93.12
9423;BME280;65863;49.506;10.400;2023-02-18T05:53:24;98637.97;;;9.61;92.70
9423;BME280;65863;49.506;10.400;2023-02-18T05:56:08;98625.03;;;9.58;92.56
9423;BME280;65863;49.506;10.400;2023-02-18T05:58:52;98616.56;;;9.44;92.48
9423;BME280;65863;49.506;10.400;2023-02-18T06:01:36;98626.31;;;9.57;92.38
9423;BME280;65863;49.506;10.400;2023-02-18T06:04:20;98633.53;;;9.52;91.87
9423;BME280;65863;49.506;10.400;2023-02-18T06:07:04;98619.06;;;9.48;91.69
9423;BME280;65863;49.506;10.400;2023-02-18T06:09:47;98637.69;;;9.64;91.68
9423;BME280;65863;49.506;10.400;2023-02-18T06:12:32;98621.25;;;9.55;91.34
9423;BME280;65863;49.506;10.400;2023-02-18T06:15:16;98619.44;;;9.58;91.12
9423;BME280;65863;49.506;10.400;2023-02-18T06:18:00;98620.63;;;9.62;91.14
9423;BME280;65863;49.506;10.400;2023-02-18T06:20:46;98620.03;;;9.51;90.84
9423;BME280;65863;49.506;10.400;2023-02-18T06:23:30;98605.91;;;9.43;90.82
9423;BME280;65863;49.506;10.400;2023-02-18T06:26:14;98615.59;;;9.42;91.16
9423;BME280;65863;49.506;10.400;2023-02-18T06:28:58;98603.19;;;9.37;91.32
9423;BME280;65863;49.506;10.400;2023-02-18T06:31:42;98617.19;;;9.37;91.73
9423;BME280;65863;49.506;10.400;2023-02-18T06:34:27;98606.88;;;9.26;92.03
9423;BME280;65863;49.506;10.400;2023-02-18T06:37:10;98601.06;;;9.24;92.37
9423;BME280;65863;49.506;10.400;2023-02-18T06:39:54;98607.03;;;9.15;92.59
9423;BME280;65863;49.506;10.400;2023-02-18T06:42:38;98593.03;;;9.15;92.97
9423;BME280;65863;49.506;10.400;2023-02-18T06:45:23;98610.22;;;9.25;93.49
9423;BME280;65863;49.506;10.400;2023-02-18T06:48:07;98595.00;;;9.20;93.62
9423;BME280;65863;49.506;10.400;2023-02-18T06:50:52;98597.81;;;9.20;93.79
9423;BME280;65863;49.506;10.400;2023-02-18T06:53:36;98611.88;;;9.34;93.77
9423;BME280;65863;49.506;10.400;2023-02-18T06:56:20;98622.09;;;9.31;93.95
9423;BME280;65863;49.506;10.400;2023-02-18T06:59:04;98570.38;;;8.94;94.11
9423;BME280;65863;49.506;10.400;2023-02-18T07:01:48;98583.69;;;9.07;94.25
9423;BME280;65863;49.506;10.400;2023-02-18T07:04:32;98573.66;;;9.17;94.29
9423;BME280;65863;49.506;10.400;2023-02-18T07:07:16;98566.81;;;9.12;93.94
9423;BME280;65863;49.506;10.400;2023-02-18T07:10:00;98570.00;;;9.22;94.20
9423;BME280;65863;49.506;10.400;2023-02-18T07:12:44;98565.19;;;9.23;93.86
9423;BME280;65863;49.506;10.400;2023-02-18T07:15:28;98564.31;;;9.28;93.67
9423;BME280;65863;49.506;10.400;2023-02-18T07:18:12;98534.19;;;9.15;93.13
9423;BME280;65863;49.506;10.400;2023-02-18T07:20:57;98566.22;;;9.39;92.90
9423;BME280;65863;49.506;10.400;2023-02-18T07:23:41;98565.50;;;9.52;92.34
9423;BME280;65863;49.506;10.400;2023-02-18T07:26:38;98552.47;;;9.54;92.18
9423;BME280;65863;49.506;10.400;2023-02-18T07:29:22;98532.63;;;9.52;91.58
9423;BME280;65863;49.506;10.400;2023-02-18T07:32:05;98545.44;;;9.47;91.18
9423;BME280;65863;49.506;10.400;2023-02-18T07:34:51;98571.22;;;9.78;90.65
9423;BME280;65863;49.506;10.400;2023-02-18T07:37:35;98567.72;;;9.72;90.17
9423;BME280;65863;49.506;10.400;2023-02-18T07:40:20;98533.25;;;9.45;89.61
9423;BME280;65863;49.506;10.400;2023-02-18T07:43:04;98565.69;;;9.73;89.04
9423;BME280;65863;49.506;10.400;2023-02-18T07:45:48;98558.03;;;9.73;88.92
9423;BME280;65863;49.506;10.400;2023-02-18T07:48:32;98569.81;;;9.85;88.48
9423;BME280;65863;49.506;10.400;2023-02-18T07:51:16;98592.13;;;10.10;88.46
9423;BME280;65863;49.506;10.400;2023-02-18T07:54:00;98549.16;;;10.02;87.76
9423;BME280;65863;49.506;10.400;2023-02-18T07:56:45;98556.09;;;10.14;87.26
9423;BME280;65863;49.506;10.400;2023-02-18T07:59:29;98582.00;;;10.33;86.68
9423;BME280;65863;49.506;10.400;2023-02-18T08:02:19;98571.47;;;10.40;86.21
9423;BME280;65863;49.506;10.400;2023-02-18T08:05:03;98573.28;;;10.37;85.87
9423;BME280;65863;49.506;10.400;2023-02-18T08:07:47;98555.66;;;10.23;85.39
9423;BME280;65863;49.506;10.400;2023-02-18T08:10:31;98575.28;;;10.23;85.00
9423;BME280;65863;49.506;10.400;2023-02-18T08:13:16;98557.81;;;10.30;84.94
9423;BME280;65863;49.506;10.400;2023-02-18T08:16:00;98545.09;;;10.29;84.81
9423;BME280;65863;49.506;10.400;2023-02-18T08:18:44;98563.69;;;10.46;84.43
9423;BME280;65863;49.506;10.400;2023-02-18T08:21:28;98540.69;;;10.34;84.08
9423;BME280;65863;49.506;10.400;2023-02-18T08:24:12;98558.72;;;10.52;84.30
9423;BME280;65863;49.506;10.400;2023-02-18T08:26:56;98540.56;;;10.53;84.00
9423;BME280;65863;49.506;10.400;2023-02-18T08:29:40;98530.31;;;10.56;83.63
9423;BME280;65863;49.506;10.400;2023-02-18T08:32:28;98544.91;;;10.67;83.63
9423;BME280;65863;49.506;10.400;2023-02-18T08:35:17;98539.38;;;10.75;83.45
9423;BME280;65863;49.506;10.400;2023-02-18T08:38:01;98484.03;;;10.36;82.85
9423;BME280;65863;49.506;10.400;2023-02-18T08:40:46;98527.25;;;10.94;82.78
9423;BME280;65863;49.506;10.400;2023-02-18T08:43:31;98522.06;;;10.98;82.33
9423;BME280;65863;49.506;10.400;2023-02-18T08:46:15;98543.63;;;11.16;82.06
9423;BME280;65863;49.506;10.400;2023-02-18T08:49:00;98515.88;;;11.13;81.80
9423;BME280;65863;49.506;10.400;2023-02-18T08:51:44;98519.16;;;11.25;81.29
9423;BME280;65863;49.506;10.400;2023-02-18T08:54:28;98483.47;;;10.98;80.91
9423;BME280;65863;49.506;10.400;2023-02-18T08:57:13;98520.81;;;11.20;80.13
9423;BME280;65863;49.506;10.400;2023-02-18T08:59:56;98486.75;;;10.89;80.53
9423;BME280;65863;49.506;10.400;2023-02-18T09:02:40;98517.44;;;11.22;80.60
9423;BME280;65863;49.506;10.400;2023-02-18T09:05:25;98491.22;;;11.06;80.64
9423;BME280;65863;49.506;10.400;2023-02-18T09:08:09;98463.13;;;11.06;80.98
9423;BME280;65863;49.506;10.400;2023-02-18T09:10:57;98442.66;;;10.97;80.49
9423;BME280;65863;49.506;10.400;2023-02-18T09:13:51;98466.22;;;11.15;80.55
9423;BME280;65863;49.506;10.400;2023-02-18T09:16:35;98475.03;;;11.33;80.22
9423;BME280;65863;49.506;10.400;2023-02-18T09:19:20;98461.31;;;11.29;79.95
9423;BME280;65863;49.506;10.400;2023-02-18T09:22:05;98472.00;;;11.31;79.62
9423;BME280;65863;49.506;10.400;2023-02-18T09:24:48;98456.44;;;11.09;79.13
9423;BME280;65863;49.506;10.400;2023-02-18T09:27:33;98470.34;;;11.14;79.06
9423;BME280;65863;49.506;10.400;2023-02-18T09:30:17;98473.06;;;11.07;78.72
9423;BME280;65863;49.506;10.400;2023-02-18T09:33:01;98467.41;;;11.20;78.43
9423;BME280;65863;49.506;10.400;2023-02-18T09:35:46;98461.00;;;10.98;78.35
9423;BME280;65863;49.506;10.400;2023-02-18T09:38:30;98494.72;;;11.33;77.86
9423;BME280;65863;49.506;10.400;2023-02-18T09:41:31;98504.91;;;11.44;77.16
9423;BME280;65863;49.506;10.400;2023-02-18T09:44:26;98504.03;;;11.49;76.62
9423;BME280;65863;49.506;10.400;2023-02-18T09:47:15;98506.16;;;11.56;76.14
9423;BME280;65863;49.506;10.400;2023-02-18T09:52:55;98517.41;;;11.77;75.05
9423;BME280;65863;49.506;10.400;2023-02-18T09:55:41;98413.94;;;11.12;74.89
9423;BME280;65863;49.506;10.400;2023-02-18T09:58:31;98391.75;;;11.22;74.62
9423;BME280;65863;49.506;10.400;2023-02-18T10:01:31;98480.06;;;11.98;74.30
9423;BME280;65863;49.506;10.400;2023-02-18T10:04:21;98468.44;;;11.73;73.75
9423;BME280;65863;49.506;10.400;2023-02-18T10:07:18;98478.31;;;11.66;73.99
9423;BME280;65863;49.506;10.400;2023-02-18T10:10:20;98469.75;;;11.50;74.06
9423;BME280;65863;49.506;10.400;2023-02-18T10:13:14;98464.34;;;11.31;74.25
9423;BME280;65863;49.506;10.400;2023-02-18T10:15:59;98466.19;;;11.50;74.45
9423;BME280;65863;49.506;10.400;2023-02-18T10:18:46;98469.47;;;11.62;74.42
9423;BME280;65863;49.506;10.400;2023-02-18T10:21:33;98489.88;;;11.83;74.31
9423;BME280;65863;49.506;10.400;2023-02-18T10:27:12;98412.28;;;11.38;74.21
9423;BME280;65863;49.506;10.400;2023-02-18T10:33:32;98454.16;;;11.70;73.96
9423;BME280;65863;49.506;10.400;2023-02-18T10:36:24;98440.34;;;11.51;74.59
9423;BME280;65863;49.506;10.400;2023-02-18T10:51:18;98440.34;;;11.51;75.33
9423;BME280;65863;49.506;10.400;2023-02-18T10:54:05;98446.09;;;11.46;75.28
9423;BME280;65863;49.506;10.400;2023-02-18T10:56:51;98451.09;;;11.40;75.39
9423;BME280;65863;49.506;10.400;2023-02-18T10:59:35;98418.19;;;11.48;75.46
9423;BME280;65863;49.506;10.400;2023-02-18T11:02:19;98437.72;;;11.53;74.92
9423;BME280;65863;49.506;10.400;2023-02-18T11:05:25;98444.03;;;11.67;74.97
9423;BME280;65863;49.506;10.400;2023-02-18T11:08:13;98426.63;;;11.48;75.25
9423;BME280;65863;49.506;10.400;2023-02-18T11:11:08;98436.88;;;11.66;75.29
9423;BME280;65863;49.506;10.400;2023-02-18T11:13:59;98454.69;;;11.90;74.85
9423;BME280;65863;49.506;10.400;2023-02-18T11:16:45;98447.91;;;11.85;73.99
9423;BME280;65863;49.506;10.400;2023-02-18T11:19:36;98417.16;;;11.87;74.04
9423;BME280;65863;49.506;10.400;2023-02-18T11:25:20;98402.19;;;11.93;73.67
9423;BME280;65863;49.506;10.400;2023-02-18T11:28:30;98405.06;;;12.00;73.26
9423;BME280;65863;49.506;10.400;2023-02-18T11:31:21;98358.78;;;11.80;73.07
9423;BME280;65863;49.506;10.400;2023-02-18T11:34:14;98363.16;;;11.89;73.08
9423;BME280;65863;49.506;10.400;2023-02-18T11:37:12;98400.06;;;12.07;72.95
9423;BME280;65863;49.506;10.400;2023-02-18T11:40:00;98400.22;;;12.01;73.21
9423;BME280;65863;49.506;10.400;2023-02-18T11:42:44;98382.22;;;11.75;72.95
9423;BME280;65863;49.506;10.400;2023-02-18T11:45:30;98388.22;;;11.79;73.16
9423;BME280;65863;49.506;10.400;2023-02-18T11:48:21;98386.44;;;11.89;73.21
9423;BME280;65863;49.506;10.400;2023-02-18T11:51:14;98360.06;;;11.71;72.72
9423;BME280;65863;49.506;10.400;2023-02-18T11:54:03;98346.00;;;11.71;72.35
9423;BME280;65863;49.506;10.400;2023-02-18T11:56:59;98388.00;;;11.98;72.53
9423;BME280;65863;49.506;10.400;2023-02-18T11:59:44;98379.34;;;11.96;72.04
9423;BME280;65863;49.506;10.400;2023-02-18T12:05:24;98392.69;;;11.75;72.32
9423;BME280;65863;49.506;10.400;2023-02-18T12:10:58;98365.19;;;11.81;72.24
9423;BME280;65863;49.506;10.400;2023-02-18T12:13:52;98377.63;;;11.93;71.88
9423;BME280;65863;49.506;10.400;2023-02-18T12:17:06;98360.56;;;11.91;72.00
9423;BME280;65863;49.506;10.400;2023-02-18T12:20:06;98377.16;;;12.02;71.59
9423;BME280;65863;49.506;10.400;2023-02-18T12:26:02;98337.38;;;11.69;70.92
9423;BME280;65863;49.506;10.400;2023-02-18T12:38:16;98381.41;;;11.96;70.77
9423;BME280;65863;49.506;10.400;2023-02-18T12:41:27;98374.00;;;11.85;71.01
9423;BME280;65863;49.506;10.400;2023-02-18T12:44:40;98377.44;;;11.91;70.96
9423;BME280;65863;49.506;10.400;2023-02-18T12:53:55;98344.75;;;11.51;71.46
9423;BME280;65863;49.506;10.400;2023-02-18T12:56:53;98359.06;;;11.61;71.73
9423;BME280;65863;49.506;10.400;2023-02-18T12:59:51;98341.88;;;11.44;71.70
9423;BME280;65863;49.506;10.400;2023-02-18T13:09:12;98364.84;;;11.56;72.65
9423;BME280;65863;49.506;10.400;2023-02-18T13:12:44;98347.19;;;11.55;72.69
9423;BME280;65863;49.506;10.400;2023-02-18T13:15:40;98288.06;;;11.11;72.26
9423;BME280;65863;49.506;10.400;2023-02-18T13:18:39;98336.50;;;11.53;72.06
9423;BME280;65863;49.506;10.400;2023-02-18T13:21:26;98330.44;;;11.70;71.74
9423;BME280;65863;49.506;10.400;2023-02-18T13:24:27;98347.78;;;11.90;71.38
9423;BME280;65863;49.506;10.400;2023-02-18T13:27:40;98344.97;;;11.90;71.47
9423;BME280;65863;49.506;10.400;2023-02-18T13:30:37;98348.16;;;11.86;71.19
9423;BME280;65863;49.506;10.400;2023-02-18T13:36:33;98304.44;;;11.49;71.62
9423;BME280;65863;49.506;10.400;2023-02-18T13:39:21;98338.47;;;11.66;71.34
9423;BME280;65863;49.506;10.400;2023-02-18T13:47:46;98334.06;;;11.50;71.52
9423;BME280;65863;49.506;10.400;2023-02-18T13:50:40;98321.66;;;11.45;71.35
9423;BME280;65863;49.506;10.400;2023-02-18T13:53:28;98326.75;;;11.47;71.04
9423;BME280;65863;49.506;10.400;2023-02-18T13:56:26;98349.13;;;11.60;71.11
9423;BME280;65863;49.506;10.400;2023-02-18T13:59:19;98336.63;;;11.40;71.62
9423;BME280;65863;49.506;10.400;2023-02-18T14:08:05;98339.28;;;11.46;71.22
9423;BME280;65863;49.506;10.400;2023-02-18T14:14:13;98310.84;;;11.28;70.23
9423;BME280;65863;49.506;10.400;2023-02-18T14:22:52;98340.13;;;11.33;70.49
9423;BME280;65863;49.506;10.400;2023-02-18T14:25:40;98327.72;;;11.28;70.59
9423;BME280;65863;49.506;10.400;2023-02-18T14:31:27;98356.84;;;11.39;70.44
9423;BME280;65863;49.506;10.400;2023-02-18T14:37:29;98365.69;;;11.43;70.44
9423;BME280;65863;49.506;10.400;2023-02-18T14:47:15;98358.03;;;11.51;70.30
9423;BME280;65863;49.506;10.400;2023-02-18T14:50:02;98302.56;;;11.23;70.37
9423;BME280;65863;49.506;10.400;2023-02-18T14:52:50;98324.22;;;11.35;70.11
9423;BME280;65863;49.506;10.400;2023-02-18T14:55:39;98358.84;;;11.59;70.20
9423;BME280;65863;49.506;10.400;2023-02-18T14:58:56;98335.56;;;11.51;70.44
9423;BME280;65863;49.506;10.400;2023-02-18T15:01:45;98336.88;;;11.50;71.10
9423;BME280;65863;49.506;10.400;2023-02-18T15:04:29;98325.53;;;11.34;71.28
9423;BME280;65863;49.506;10.400;2023-02-18T15:07:17;98317.44;;;11.31;71.43
9423;BME280;65863;49.506;10.400;2023-02-18T15:10:02;98353.75;;;11.50;71.26
9423;BME280;65863;49.506;10.400;2023-02-18T15:12:46;98338.47;;;11.37;71.01
9423;BME280;65863;49.506;10.400;2023-02-18T15:15:31;98337.31;;;11.33;70.83
9423;BME280;65863;49.506;10.400;2023-02-18T15:18:32;98342.78;;;11.39;70.73
9423;BME280;65863;49.506;10.400;2023-02-18T15:21:23;98324.91;;;11.28;71.16
9423;BME280;65863;49.506;10.400;2023-02-18T15:24:31;98341.03;;;11.28;71.60
9423;BME280;65863;49.506;10.400;2023-02-18T15:27:22;98335.91;;;10.97;72.95
9423;BME280;65863;49.506;10.400;2023-02-18T15:30:34;98358.53;;;11.13;73.37
9423;BME280;65863;49.506;10.400;2023-02-18T15:33:21;98333.78;;;10.90;73.86
9423;BME280;65863;49.506;10.400;2023-02-18T15:36:11;98348.31;;;11.02;74.36
9423;BME280;65863;49.506;10.400;2023-02-18T15:38:56;98324.53;;;10.82;74.27
9423;BME280;65863;49.506;10.400;2023-02-18T15:41:41;98339.94;;;10.89;74.13
9423;BME280;65863;49.506;10.400;2023-02-18T15:44:28;98353.72;;;11.00;74.10
9423;BME280;65863;49.506;10.400;2023-02-18T15:47:13;98351.25;;;10.96;73.96
9423;BME280;65863;49.506;10.400;2023-02-18T15:50:01;98334.69;;;10.85;73.58
9423;BME280;65863;49.506;10.400;2023-02-18T15:52:46;98358.38;;;10.97;73.52
9423;BME280;65863;49.506;10.400;2023-02-18T15:55:37;98336.19;;;10.86;73.19
9423;BME280;65863;49.506;10.400;2023-02-18T15:58:30;98301.53;;;10.62;73.17
9423;BME280;65863;49.506;10.400;2023-02-18T16:01:28;98328.16;;;10.69;72.92
9423;BME280;65863;49.506;10.400;2023-02-18T16:04:14;98319.94;;;10.71;72.66
9423;BME280;65863;49.506;10.400;2023-02-18T16:07:02;98352.91;;;10.92;72.64
9423;BME280;65863;49.506;10.400;2023-02-18T16:09:47;98342.50;;;10.79;72.48
9423;BME280;65863;49.506;10.400;2023-02-18T16:12:32;98360.50;;;10.83;72.25
9423;BME280;65863;49.506;10.400;2023-02-18T16:15:25;98355.63;;;10.84;72.01
9423;BME280;65863;49.506;10.400;2023-02-18T16:24:03;98339.78;;;10.52;72.93
9423;BME280;65863;49.506;10.400;2023-02-18T16:27:05;98361.50;;;10.73;73.07
9423;BME280;65863;49.506;10.400;2023-02-18T16:30:16;98346.38;;;10.55;73.07
9423;BME280;65863;49.506;10.400;2023-02-18T16:33:00;98353.16;;;10.59;73.30
9423;BME280;65863;49.506;10.400;2023-02-18T16:35:44;98357.78;;;10.57;73.19
9423;BME280;65863;49.506;10.400;2023-02-18T16:38:29;98371.84;;;10.57;73.68
9423;BME280;65863;49.506;10.400;2023-02-18T16:41:13;98366.03;;;10.41;73.95
9423;BME280;65863;49.506;10.400;2023-02-18T16:43:57;98360.34;;;10.20;74.36
9423;BME280;65863;49.506;10.400;2023-02-18T16:46:53;98382.34;;;10.29;75.24
9423;BME280;65863;49.506;10.400;2023-02-18T16:49:38;98338.81;;;9.88;75.71
9423;BME280;65863;49.506;10.400;2023-02-18T16:52:25;98394.66;;;10.26;75.80
9423;BME280;65863;49.506;10.400;2023-02-18T16:55:23;98397.47;;;10.26;75.80
9423;BME280;65863;49.506;10.400;2023-02-18T16:58:08;98325.16;;;9.71;75.76
9423;BME280;65863;49.506;10.400;2023-02-18T17:00:52;98374.16;;;10.05;75.73
9423;BME280;65863;49.506;10.400;2023-02-18T17:03:36;98388.31;;;10.12;75.39